This is the latest recevied telemetry packets stored in our database for station/object EA8EE-6. If no packets are shown the sender has not sent any telemetry packets the latest 1 day(s).
Telemetry packets is used to share measurements like repeteater parameters, battery voltage, radiation readings (or any other measurements).
| Time | TEMP* | HUM* | BAR* | BAT* | SAT* |
|---|---|---|---|---|---|
| 1788633725 | 35.43 °C | 28.2 %RH | 828 hPa | 4.2 V | 13 |
| 1788633694 | 35.41 °C | 28.4 %RH | 828 hPa | 4.19 V | 12 |
| 1788633616 | 35.36 °C | 29.3 %RH | 828 hPa | 4.19 V | 12 |
| 1788633551 | 35.34 °C | 28.8 %RH | 828 hPa | 4.19 V | 13 |
| 1788633508 | 35.34 °C | 28.8 %RH | 828 hPa | 3.96 V | 12 |
| 1788633497 | 35.34 °C | 28.4 %RH | 828 hPa | 4.19 V | 12 |
| 1788633415 | 35.36 °C | 28.5 %RH | 828 hPa | 4.19 V | 13 |
| 1788633351 | 35.38 °C | 28.6 %RH | 828 hPa | 4.19 V | 12 |
| 1788633112 | 35.27 °C | 29.5 %RH | 828 hPa | 4.19 V | 12 |
| 1788633029 | 35.25 °C | 29 %RH | 828 hPa | 4.19 V | 12 |
| 1788632995 | 35.25 °C | 29 %RH | 828 hPa | 4.19 V | 11 |
| 1788632895 | 35.25 °C | 28.3 %RH | 828 hPa | 4.52 V | 12 |
| 1788632699 | 35.16 °C | 29.3 %RH | 828 hPa | 4.19 V | 12 |
| 1788632662 | 35.15 °C | 29.3 %RH | 828 hPa | 4.19 V | 12 |
| 1788632653 | 35.15 °C | 28.8 %RH | 828 hPa | 4.19 V | 13 |
| 1788632600 | 35.11 °C | 28.8 %RH | 828 hPa | 4.19 V | 13 |
| 1788632297 | 35.04 °C | 29.9 %RH | 828 hPa | 4.19 V | 13 |
| 1788632094 | 35 °C | 29.9 %RH | 828 hPa | 4.19 V | 12 |
| 1788632011 | 35.02 °C | 29.7 %RH | 828 hPa | 4.19 V | 14 |
| 1788631999 | 35.02 °C | 29.9 %RH | 828 hPa | 4.19 V | 12 |
| 1788631715 | 34.95 °C | 30.4 %RH | 828 hPa | 3.92 V | 13 |
| 1788631565 | 34.97 °C | 30.9 %RH | 828 hPa | 4.19 V | 14 |
| 1788631556 | 34.97 °C | 30.9 %RH | 828 hPa | 4.15 V | 14 |
| 1788631548 | 34.97 °C | 30.5 %RH | 828 hPa | 4.4 V | 14 |
| 1788631093 | 35 °C | 30.9 %RH | 828 hPa | 4.19 V | 13 |
*Used Equation Coefficients:
TEMP: 0, 0.01, 0
HUM: 0, 0.1, 0
BAR: 0, 0.1, 0
BAT: 0, 0.01, 0
SAT: 0, 1, 0
- The parameter names for the analog channels will be Value1, Value2, Value3 (up to Value5) if station has not sent a PARAM-packet that specifies the parameter names for each analog channel.
- Each analog value is a decimal number between 000 and 255 (according to APRS specifications). The receiver use the telemetry equation coefficientsto to restore the original sensor values. If no EQNS-packet with equation coefficients is sent we will show the values as is (this corresponds to the equation coefficients a=0, b=1 and c=0).
The sent equation coefficients is used in the equation: a * value2 + b * value + c. - The units for the analog values will not be shown if station has not sent a UNIT-packet specifying what unit's to use.
- The parameter names for the digital bits will be Bit1, Bit2, Bit3 (up to Bit8) if station has not sent a PARAM-packet that specifies the parameter names for each digital bit.
- All bit labels will be named "On" if station has not sent a UNIT-packet that specifies the label of each bit.
- A bit is considered to be On when the bit is 1 if station has not sent a BITS-packet that specifies another "Bit sense" (a BITS-packet specify the state of the bits that match the BIT labels)